sensor_id;sensor_type;location;lat;lon;timestamp;pressure;altitude;pressure_sealevel;temperature;humidity
69239;BME280;56349;51.816;-0.026;2023-04-20T00:01:18;101842.92;;;23.34;32.89
69239;BME280;56349;51.816;-0.026;2023-04-20T00:03:44;101838.58;;;23.22;33.01
69239;BME280;56349;51.816;-0.026;2023-04-20T00:06:10;101841.86;;;23.12;33.14
69239;BME280;56349;51.816;-0.026;2023-04-20T00:08:36;101833.92;;;23.02;33.24
69239;BME280;56349;51.816;-0.026;2023-04-20T00:11:02;101835.94;;;22.93;33.34
69239;BME280;56349;51.816;-0.026;2023-04-20T00:13:28;101843.80;;;22.84;33.47
69239;BME280;56349;51.816;-0.026;2023-04-20T00:15:53;101843.08;;;22.75;33.56
69239;BME280;56349;51.816;-0.026;2023-04-20T00:18:19;101837.68;;;22.66;33.66
69239;BME280;56349;51.816;-0.026;2023-04-20T00:20:45;101841.91;;;22.58;33.75
69239;BME280;56349;51.816;-0.026;2023-04-20T00:23:11;101831.54;;;22.77;33.84
69239;BME280;56349;51.816;-0.026;2023-04-20T00:25:37;101838.02;;;22.71;33.89
69239;BME280;56349;51.816;-0.026;2023-04-20T00:28:03;101835.29;;;22.39;33.96
69239;BME280;56349;51.816;-0.026;2023-04-20T00:30:28;101830.87;;;22.82;34.01
69239;BME280;56349;51.816;-0.026;2023-04-20T00:32:54;101830.18;;;22.26;34.07
69239;BME280;56349;51.816;-0.026;2023-04-20T00:35:20;101825.25;;;22.44;34.17
69239;BME280;56349;51.816;-0.026;2023-04-20T00:37:46;101828.28;;;22.58;34.26
69239;BME280;56349;51.816;-0.026;2023-04-20T00:40:12;101827.75;;;22.51;34.35
69239;BME280;56349;51.816;-0.026;2023-04-20T00:42:38;101828.51;;;22.24;34.39
69239;BME280;56349;51.816;-0.026;2023-04-20T00:45:05;101826.53;;;22.20;34.43
69239;BME280;56349;51.816;-0.026;2023-04-20T00:47:29;101827.85;;;22.37;34.49
69239;BME280;56349;51.816;-0.026;2023-04-20T00:49:55;101818.51;;;22.31;34.51
69239;BME280;56349;51.816;-0.026;2023-04-20T00:52:21;101822.85;;;22.27;34.57
69239;BME280;56349;51.816;-0.026;2023-04-20T00:54:47;101818.27;;;22.23;34.60
69239;BME280;56349;51.816;-0.026;2023-04-20T00:57:13;101819.41;;;22.19;34.65
69239;BME280;56349;51.816;-0.026;2023-04-20T00:59:40;101818.02;;;21.90;34.71
69239;BME280;56349;51.816;-0.026;2023-04-20T01:02:06;101816.07;;;21.85;34.74
69239;BME280;56349;51.816;-0.026;2023-04-20T01:04:32;101814.14;;;22.00;34.82
69239;BME280;56349;51.816;-0.026;2023-04-20T01:06:57;101813.85;;;21.97;34.83
69239;BME280;56349;51.816;-0.026;2023-04-20T01:09:23;101809.31;;;21.95;34.86
69239;BME280;56349;51.816;-0.026;2023-04-20T01:11:49;101806.50;;;21.91;34.89
69239;BME280;56349;51.816;-0.026;2023-04-20T01:14:15;101801.82;;;22.09;34.93
69239;BME280;56349;51.816;-0.026;2023-04-20T01:16:41;101794.75;;;21.81;34.97
69239;BME280;56349;51.816;-0.026;2023-04-20T01:19:07;101791.41;;;21.76;35.01
69239;BME280;56349;51.816;-0.026;2023-04-20T01:21:33;101792.09;;;21.72;35.05
69239;BME280;56349;51.816;-0.026;2023-04-20T01:23:58;101788.47;;;21.70;35.06
69239;BME280;56349;51.816;-0.026;2023-04-20T01:26:24;101787.54;;;21.67;35.08
69239;BME280;56349;51.816;-0.026;2023-04-20T01:28:50;101784.26;;;21.84;35.13
69239;BME280;56349;51.816;-0.026;2023-04-20T01:31:16;101779.70;;;21.78;35.19
69239;BME280;56349;51.816;-0.026;2023-04-20T01:33:42;101785.66;;;21.51;35.24
69239;BME280;56349;51.816;-0.026;2023-04-20T01:36:08;101782.22;;;21.95;35.30
69239;BME280;56349;51.816;-0.026;2023-04-20T01:38:33;101780.89;;;21.91;35.33
69239;BME280;56349;51.816;-0.026;2023-04-20T01:41:00;101778.76;;;21.40;35.36
69239;BME280;56349;51.816;-0.026;2023-04-20T01:43:24;101778.51;;;21.87;35.36
69239;BME280;56349;51.816;-0.026;2023-04-20T01:45:50;101782.24;;;21.35;35.38
69239;BME280;56349;51.816;-0.026;2023-04-20T01:48:16;101775.46;;;21.54;35.38
69239;BME280;56349;51.816;-0.026;2023-04-20T01:50:42;101775.37;;;21.50;35.40
69239;BME280;56349;51.816;-0.026;2023-04-20T01:53:08;101774.12;;;21.48;35.44
69239;BME280;56349;51.816;-0.026;2023-04-20T01:55:34;101774.14;;;21.44;35.47
69239;BME280;56349;51.816;-0.026;2023-04-20T01:58:00;101770.59;;;21.67;35.50
69239;BME280;56349;51.816;-0.026;2023-04-20T02:00:26;101767.19;;;21.39;35.51
69239;BME280;56349;51.816;-0.026;2023-04-20T02:02:52;101766.75;;;21.37;35.52
69239;BME280;56349;51.816;-0.026;2023-04-20T02:05:18;101769.00;;;21.32;35.55
69239;BME280;56349;51.816;-0.026;2023-04-20T02:07:44;101767.31;;;21.55;35.60
69239;BME280;56349;51.816;-0.026;2023-04-20T02:10:10;101771.91;;;21.24;35.63
69239;BME280;56349;51.816;-0.026;2023-04-20T02:12:36;101771.82;;;21.48;35.65
69239;BME280;56349;51.816;-0.026;2023-04-20T02:15:02;101770.72;;;21.21;35.65
69239;BME280;56349;51.816;-0.026;2023-04-20T02:17:27;101770.84;;;21.19;35.67
69239;BME280;56349;51.816;-0.026;2023-04-20T02:19:53;101769.83;;;21.15;35.69
69239;BME280;56349;51.816;-0.026;2023-04-20T02:22:19;101768.66;;;21.12;35.71
69239;BME280;56349;51.816;-0.026;2023-04-20T02:24:45;101768.44;;;21.10;35.73
69239;BME280;56349;51.816;-0.026;2023-04-20T02:27:10;101769.42;;;21.33;35.73
69239;BME280;56349;51.816;-0.026;2023-04-20T02:29:37;101768.80;;;21.04;35.75
69239;BME280;56349;51.816;-0.026;2023-04-20T02:32:02;101767.24;;;21.01;35.76
69239;BME280;56349;51.816;-0.026;2023-04-20T02:34:28;101765.23;;;20.97;35.80
69239;BME280;56349;51.816;-0.026;2023-04-20T02:36:53;101767.44;;;21.20;35.82
69239;BME280;56349;51.816;-0.026;2023-04-20T02:39:19;101766.48;;;21.18;35.85
69239;BME280;56349;51.816;-0.026;2023-04-20T02:41:45;101762.36;;;21.14;35.87
69239;BME280;56349;51.816;-0.026;2023-04-20T02:44:11;101761.68;;;20.84;35.90
69239;BME280;56349;51.816;-0.026;2023-04-20T02:46:37;101764.08;;;21.07;35.93
69239;BME280;56349;51.816;-0.026;2023-04-20T02:49:03;101761.85;;;21.05;35.95
69239;BME280;56349;51.816;-0.026;2023-04-20T02:51:28;101761.75;;;20.76;35.96
69239;BME280;56349;51.816;-0.026;2023-04-20T02:53:54;101764.28;;;21.01;35.97
69239;BME280;56349;51.816;-0.026;2023-04-20T02:56:20;101766.96;;;20.99;35.97
69239;BME280;56349;51.816;-0.026;2023-04-20T02:58:46;101768.59;;;20.95;35.99
69239;BME280;56349;51.816;-0.026;2023-04-20T03:01:12;101765.33;;;20.92;36.02
69239;BME280;56349;51.816;-0.026;2023-04-20T03:03:38;101763.45;;;20.88;36.05
69239;BME280;56349;51.816;-0.026;2023-04-20T03:06:04;101760.10;;;20.84;36.07
69239;BME280;56349;51.816;-0.026;2023-04-20T03:08:29;101759.94;;;20.81;36.09
69239;BME280;56349;51.816;-0.026;2023-04-20T03:10:55;101758.31;;;20.77;36.12
69239;BME280;56349;51.816;-0.026;2023-04-20T03:13:21;101761.25;;;20.74;36.15
69239;BME280;56349;51.816;-0.026;2023-04-20T03:15:47;101759.99;;;20.72;36.16
69239;BME280;56349;51.816;-0.026;2023-04-20T03:18:13;101755.94;;;20.69;36.18
69239;BME280;56349;51.816;-0.026;2023-04-20T03:20:39;101759.43;;;20.64;36.21
69239;BME280;56349;51.816;-0.026;2023-04-20T03:23:05;101763.89;;;20.86;36.21
69239;BME280;56349;51.816;-0.026;2023-04-20T03:25:31;101765.87;;;20.62;36.22
69239;BME280;56349;51.816;-0.026;2023-04-20T03:27:57;101767.44;;;20.59;36.24
69239;BME280;56349;51.816;-0.026;2023-04-20T03:30:23;101764.38;;;20.57;36.31
69239;BME280;56349;51.816;-0.026;2023-04-20T03:32:49;101768.32;;;20.58;36.41
69239;BME280;56349;51.816;-0.026;2023-04-20T03:35:14;101766.72;;;20.65;36.46
69239;BME280;56349;51.816;-0.026;2023-04-20T03:37:40;101768.85;;;20.77;36.50
69239;BME280;56349;51.816;-0.026;2023-04-20T03:40:08;101769.44;;;20.95;36.42
69239;BME280;56349;51.816;-0.026;2023-04-20T03:42:31;101768.42;;;20.89;36.27
69239;BME280;56349;51.816;-0.026;2023-04-20T03:44:57;101770.83;;;21.12;36.09
69239;BME280;56349;51.816;-0.026;2023-04-20T03:47:23;101771.74;;;21.37;35.87
69239;BME280;56349;51.816;-0.026;2023-04-20T03:49:49;101770.21;;;21.40;35.57
69239;BME280;56349;51.816;-0.026;2023-04-20T03:52:15;101774.58;;;21.63;35.26
69239;BME280;56349;51.816;-0.026;2023-04-20T03:54:41;101779.48;;;21.58;34.96
69239;BME280;56349;51.816;-0.026;2023-04-20T03:57:07;101778.54;;;21.89;34.72
69239;BME280;56349;51.816;-0.026;2023-04-20T03:59:33;101778.65;;;21.93;34.55
69239;BME280;56349;51.816;-0.026;2023-04-20T04:02:00;101779.26;;;21.94;34.41
69239;BME280;56349;51.816;-0.026;2023-04-20T04:04:25;101781.69;;;22.12;34.33
69239;BME280;56349;51.816;-0.026;2023-04-20T04:06:51;101778.94;;;21.84;34.27
69239;BME280;56349;51.816;-0.026;2023-04-20T04:09:17;101775.22;;;21.74;34.30
69239;BME280;56349;51.816;-0.026;2023-04-20T04:11:43;101775.60;;;21.63;34.33
69239;BME280;56349;51.816;-0.026;2023-04-20T04:14:09;101776.89;;;21.51;34.37
69239;BME280;56349;51.816;-0.026;2023-04-20T04:16:35;101778.04;;;21.39;34.45
69239;BME280;56349;51.816;-0.026;2023-04-20T04:19:01;101777.45;;;21.50;34.50
69239;BME280;56349;51.816;-0.026;2023-04-20T04:21:27;101776.84;;;21.40;34.56
69239;BME280;56349;51.816;-0.026;2023-04-20T04:23:53;101775.39;;;21.28;34.63
69239;BME280;56349;51.816;-0.026;2023-04-20T04:26:19;101773.40;;;21.44;34.70
69239;BME280;56349;51.816;-0.026;2023-04-20T04:28:45;101773.58;;;21.33;34.76
69239;BME280;56349;51.816;-0.026;2023-04-20T04:31:11;101774.54;;;20.97;34.79
69239;BME280;56349;51.816;-0.026;2023-04-20T04:33:36;101778.05;;;20.88;34.91
69239;BME280;56349;51.816;-0.026;2023-04-20T04:36:02;101784.74;;;21.08;34.93
69239;BME280;56349;51.816;-0.026;2023-04-20T04:38:27;101783.82;;;20.74;35.00
69239;BME280;56349;51.816;-0.026;2023-04-20T04:40:53;101783.07;;;20.67;35.04
69239;BME280;56349;51.816;-0.026;2023-04-20T04:43:19;101782.17;;;20.84;35.09
69239;BME280;56349;51.816;-0.026;2023-04-20T04:45:45;101781.90;;;20.78;35.13
69239;BME280;56349;51.816;-0.026;2023-04-20T04:48:11;101783.36;;;20.71;35.21
69239;BME280;56349;51.816;-0.026;2023-04-20T04:50:36;101782.76;;;20.87;35.26
69239;BME280;56349;51.816;-0.026;2023-04-20T04:53:02;101782.96;;;20.33;35.31
69239;BME280;56349;51.816;-0.026;2023-04-20T04:55:28;101786.64;;;20.55;35.42
69239;BME280;56349;51.816;-0.026;2023-04-20T04:57:54;101787.75;;;20.51;35.55
69239;BME280;56349;51.816;-0.026;2023-04-20T05:00:20;101789.48;;;20.71;35.72
69239;BME280;56349;51.816;-0.026;2023-04-20T05:02:45;101789.91;;;20.47;35.89
69239;BME280;56349;51.816;-0.026;2023-04-20T05:05:11;101790.07;;;20.46;36.09
69239;BME280;56349;51.816;-0.026;2023-04-20T05:07:37;101790.18;;;20.48;36.26
69239;BME280;56349;51.816;-0.026;2023-04-20T05:10:03;101794.29;;;20.49;36.36
69239;BME280;56349;51.816;-0.026;2023-04-20T05:12:28;101798.15;;;20.51;36.45
69239;BME280;56349;51.816;-0.026;2023-04-20T05:14:54;101797.23;;;20.75;36.59
69239;BME280;56349;51.816;-0.026;2023-04-20T05:17:20;101793.69;;;20.56;36.72
69239;BME280;56349;51.816;-0.026;2023-04-20T05:19:45;101793.02;;;20.81;36.87
69239;BME280;56349;51.816;-0.026;2023-04-20T05:22:11;101792.86;;;20.62;36.99
69239;BME280;56349;51.816;-0.026;2023-04-20T05:24:37;101792.56;;;20.66;37.10
69239;BME280;56349;51.816;-0.026;2023-04-20T05:27:03;101789.75;;;20.77;37.12
69239;BME280;56349;51.816;-0.026;2023-04-20T05:29:28;101791.84;;;20.81;37.19
69239;BME280;56349;51.816;-0.026;2023-04-20T05:31:54;101790.39;;;21.07;37.27
69239;BME280;56349;51.816;-0.026;2023-04-20T05:34:20;101791.99;;;20.90;37.33
69239;BME280;56349;51.816;-0.026;2023-04-20T05:36:46;101797.55;;;20.96;37.38
69239;BME280;56349;51.816;-0.026;2023-04-20T05:39:12;101798.02;;;21.00;37.43
69239;BME280;56349;51.816;-0.026;2023-04-20T05:41:38;101795.75;;;20.80;37.45
69239;BME280;56349;51.816;-0.026;2023-04-20T05:44:04;101797.00;;;21.12;37.45
69239;BME280;56349;51.816;-0.026;2023-04-20T05:46:30;101795.47;;;21.18;37.44
69239;BME280;56349;51.816;-0.026;2023-04-20T05:48:56;101797.81;;;21.22;37.46
69239;BME280;56349;51.816;-0.026;2023-04-20T05:51:21;101799.89;;;20.99;37.47
69239;BME280;56349;51.816;-0.026;2023-04-20T05:53:47;101800.05;;;21.29;37.49
69239;BME280;56349;51.816;-0.026;2023-04-20T05:56:13;101800.55;;;21.04;37.51
69239;BME280;56349;51.816;-0.026;2023-04-20T05:58:40;101798.15;;;21.55;37.54
69239;BME280;56349;51.816;-0.026;2023-04-20T06:01:04;101802.94;;;21.36;37.55
69239;BME280;56349;51.816;-0.026;2023-04-20T06:03:30;101802.49;;;21.13;37.56
69239;BME280;56349;51.816;-0.026;2023-04-20T06:05:56;101804.67;;;21.43;37.57
69239;BME280;56349;51.816;-0.026;2023-04-20T06:08:22;101809.62;;;21.19;37.55
69239;BME280;56349;51.816;-0.026;2023-04-20T06:10:48;101809.45;;;21.22;37.56
69239;BME280;56349;51.816;-0.026;2023-04-20T06:13:14;101809.82;;;21.52;37.55
69239;BME280;56349;51.816;-0.026;2023-04-20T06:15:39;101810.89;;;21.32;37.51
69239;BME280;56349;51.816;-0.026;2023-04-20T06:18:05;101813.02;;;21.62;37.46
69239;BME280;56349;51.816;-0.026;2023-04-20T06:20:31;101809.41;;;21.38;37.39
69239;BME280;56349;51.816;-0.026;2023-04-20T06:22:57;101811.80;;;21.67;37.34
69239;BME280;56349;51.816;-0.026;2023-04-20T06:25:23;101813.96;;;21.42;37.27
69239;BME280;56349;51.816;-0.026;2023-04-20T06:27:49;101814.26;;;21.70;37.19
69239;BME280;56349;51.816;-0.026;2023-04-20T06:30:15;101815.57;;;21.71;37.09
69239;BME280;56349;51.816;-0.026;2023-04-20T06:32:41;101816.44;;;21.72;36.67
69239;BME280;56349;51.816;-0.026;2023-04-20T06:35:07;101818.80;;;21.72;36.69
69239;BME280;56349;51.816;-0.026;2023-04-20T06:37:33;101819.06;;;21.47;36.72
69239;BME280;56349;51.816;-0.026;2023-04-20T06:39:58;101817.22;;;21.51;36.78
69239;BME280;56349;51.816;-0.026;2023-04-20T06:42:24;101819.20;;;21.61;36.84
69239;BME280;56349;51.816;-0.026;2023-04-20T06:44:50;101812.07;;;21.53;36.85
69239;BME280;56349;51.816;-0.026;2023-04-20T06:47:16;101812.94;;;21.76;36.79
69239;BME280;56349;51.816;-0.026;2023-04-20T06:49:42;101810.57;;;22.04;36.61
69239;BME280;56349;51.816;-0.026;2023-04-20T06:52:08;101808.25;;;22.36;36.42
69239;BME280;56349;51.816;-0.026;2023-04-20T06:54:34;101811.82;;;22.21;36.10
69239;BME280;56349;51.816;-0.026;2023-04-20T06:56:59;101812.84;;;22.57;35.72
69239;BME280;56349;51.816;-0.026;2023-04-20T06:59:26;101805.44;;;22.94;35.32
69239;BME280;56349;51.816;-0.026;2023-04-20T07:01:51;101808.45;;;23.31;34.91
69239;BME280;56349;51.816;-0.026;2023-04-20T07:04:17;101803.89;;;23.42;34.52
69239;BME280;56349;51.816;-0.026;2023-04-20T07:06:42;101803.88;;;23.74;34.14
69239;BME280;56349;51.816;-0.026;2023-04-20T07:09:08;101798.84;;;23.78;33.75
69239;BME280;56349;51.816;-0.026;2023-04-20T07:11:34;101798.92;;;24.07;33.39
69239;BME280;56349;51.816;-0.026;2023-04-20T07:14:00;101800.64;;;24.33;33.07
69239;BME280;56349;51.816;-0.026;2023-04-20T07:16:26;101799.90;;;24.14;32.75
69239;BME280;56349;51.816;-0.026;2023-04-20T07:18:52;101800.47;;;24.37;32.45
69239;BME280;56349;51.816;-0.026;2023-04-20T07:21:17;101801.19;;;24.58;32.16
69239;BME280;56349;51.816;-0.026;2023-04-20T07:23:44;101800.71;;;24.78;31.89
69239;BME280;56349;51.816;-0.026;2023-04-20T07:26:08;101798.49;;;24.96;31.63
69239;BME280;56349;51.816;-0.026;2023-04-20T07:28:35;101794.95;;;25.12;31.40
69239;BME280;56349;51.816;-0.026;2023-04-20T07:31:01;101792.03;;;25.26;31.20
69239;BME280;56349;51.816;-0.026;2023-04-20T07:33:26;101788.97;;;25.15;30.97
69239;BME280;56349;51.816;-0.026;2023-04-20T07:35:52;101787.53;;;25.31;30.79
69239;BME280;56349;51.816;-0.026;2023-04-20T07:38:18;101785.56;;;25.21;30.63
69239;BME280;56349;51.816;-0.026;2023-04-20T07:40:44;101787.74;;;25.27;30.50
69239;BME280;56349;51.816;-0.026;2023-04-20T07:43:10;101782.81;;;25.56;30.34
69239;BME280;56349;51.816;-0.026;2023-04-20T07:45:38;101781.09;;;25.41;30.21
69239;BME280;56349;51.816;-0.026;2023-04-20T07:48:02;101784.88;;;25.45;30.14
69239;BME280;56349;51.816;-0.026;2023-04-20T07:50:28;101781.83;;;25.48;30.03
69239;BME280;56349;51.816;-0.026;2023-04-20T07:52:54;101780.93;;;25.54;29.92
69239;BME280;56349;51.816;-0.026;2023-04-20T07:55:20;101779.76;;;25.60;29.79
69239;BME280;56349;51.816;-0.026;2023-04-20T07:57:46;101780.41;;;25.64;29.67
69239;BME280;56349;51.816;-0.026;2023-04-20T08:00:13;101780.19;;;25.68;29.56
69239;BME280;56349;51.816;-0.026;2023-04-20T08:02:38;101779.12;;;25.48;29.49
69239;BME280;56349;51.816;-0.026;2023-04-20T08:05:04;101779.41;;;25.69;29.47
69239;BME280;56349;51.816;-0.026;2023-04-20T08:07:29;101770.66;;;25.70;29.43
69239;BME280;56349;51.816;-0.026;2023-04-20T08:09:55;101772.47;;;25.74;29.33
69239;BME280;56349;51.816;-0.026;2023-04-20T08:12:21;101767.19;;;25.55;29.24
69239;BME280;56349;51.816;-0.026;2023-04-20T08:14:47;101768.26;;;25.78;29.19
69239;BME280;56349;51.816;-0.026;2023-04-20T08:17:13;101764.11;;;25.80;29.12
69239;BME280;56349;51.816;-0.026;2023-04-20T08:19:40;101763.04;;;25.85;29.02
69239;BME280;56349;51.816;-0.026;2023-04-20T08:22:05;101759.39;;;25.35;28.98
69239;BME280;56349;51.816;-0.026;2023-04-20T08:24:31;101758.85;;;25.64;28.86
69239;BME280;56349;51.816;-0.026;2023-04-20T08:26:55;101755.60;;;25.89;28.77
69239;BME280;56349;51.816;-0.026;2023-04-20T08:29:21;101752.93;;;25.69;28.70
69239;BME280;56349;51.816;-0.026;2023-04-20T08:31:47;101748.67;;;25.73;28.62
69239;BME280;56349;51.816;-0.026;2023-04-20T08:34:13;101747.91;;;26.00;28.61
69239;BME280;56349;51.816;-0.026;2023-04-20T08:36:39;101744.30;;;25.51;28.62
69239;BME280;56349;51.816;-0.026;2023-04-20T08:39:06;101741.73;;;25.50;28.62
69239;BME280;56349;51.816;-0.026;2023-04-20T08:41:31;101736.80;;;26.00;28.58
69239;BME280;56349;51.816;-0.026;2023-04-20T08:43:57;101736.25;;;25.76;28.54
69239;BME280;56349;51.816;-0.026;2023-04-20T08:46:23;101732.86;;;25.76;28.49
69239;BME280;56349;51.816;-0.026;2023-04-20T08:48:48;101732.79;;;25.75;28.44
69239;BME280;56349;51.816;-0.026;2023-04-20T08:51:15;101733.01;;;25.93;28.43
69239;BME280;56349;51.816;-0.026;2023-04-20T08:53:39;101730.35;;;25.45;28.38
69239;BME280;56349;51.816;-0.026;2023-04-20T08:56:06;101728.56;;;25.94;28.33
69239;BME280;56349;51.816;-0.026;2023-04-20T08:58:31;101723.21;;;25.68;28.32
69239;BME280;56349;51.816;-0.026;2023-04-20T09:00:56;101722.23;;;25.67;28.30
69239;BME280;56349;51.816;-0.026;2023-04-20T09:03:32;101724.70;;;25.67;28.26
69239;BME280;56349;51.816;-0.026;2023-04-20T09:05:49;101725.77;;;25.68;28.21
69239;BME280;56349;51.816;-0.026;2023-04-20T09:08:14;101721.43;;;25.40;28.18
69239;BME280;56349;51.816;-0.026;2023-04-20T09:10:41;101718.99;;;25.65;28.16
69239;BME280;56349;51.816;-0.026;2023-04-20T09:13:05;101720.70;;;25.86;28.13
69239;BME280;56349;51.816;-0.026;2023-04-20T09:15:31;101720.27;;;25.85;28.11
69239;BME280;56349;51.816;-0.026;2023-04-20T09:17:56;101714.71;;;25.60;28.10
69239;BME280;56349;51.816;-0.026;2023-04-20T09:20:27;101709.02;;;25.58;28.09
69239;BME280;56349;51.816;-0.026;2023-04-20T09:22:47;101707.57;;;25.60;28.05
69239;BME280;56349;51.816;-0.026;2023-04-20T09:25:14;101705.25;;;25.82;28.02
69239;BME280;56349;51.816;-0.026;2023-04-20T09:27:39;101701.62;;;25.58;28.01
69239;BME280;56349;51.816;-0.026;2023-04-20T09:30:06;101703.01;;;25.80;27.99
69239;BME280;56349;51.816;-0.026;2023-04-20T09:32:29;101697.06;;;25.80;27.97
69239;BME280;56349;51.816;-0.026;2023-04-20T09:34:56;101685.52;;;25.78;27.95
69239;BME280;56349;51.816;-0.026;2023-04-20T09:37:21;101683.97;;;25.28;27.94
69239;BME280;56349;51.816;-0.026;2023-04-20T09:39:48;101676.94;;;25.74;27.91
69239;BME280;56349;51.816;-0.026;2023-04-20T09:42:14;101673.67;;;25.69;27.86
69239;BME280;56349;51.816;-0.026;2023-04-20T09:44:39;101671.29;;;25.36;27.85
69239;BME280;56349;51.816;-0.026;2023-04-20T09:47:04;101667.14;;;25.36;27.90
69239;BME280;56349;51.816;-0.026;2023-04-20T09:49:29;101668.12;;;25.13;27.99
69239;BME280;56349;51.816;-0.026;2023-04-20T09:51:54;101664.41;;;24.86;28.12
69239;BME280;56349;51.816;-0.026;2023-04-20T09:54:20;101652.91;;;24.83;28.27
69239;BME280;56349;51.816;-0.026;2023-04-20T09:56:47;101654.96;;;24.80;28.45
69239;BME280;56349;51.816;-0.026;2023-04-20T09:59:11;101650.93;;;24.23;28.67
69239;BME280;56349;51.816;-0.026;2023-04-20T10:01:36;101647.18;;;24.18;28.91
69239;BME280;56349;51.816;-0.026;2023-04-20T10:04:05;101646.66;;;23.88;29.11
69239;BME280;56349;51.816;-0.026;2023-04-20T10:06:30;101641.38;;;24.05;29.34
69239;BME280;56349;51.816;-0.026;2023-04-20T10:08:54;101638.51;;;23.79;29.57
69239;BME280;56349;51.816;-0.026;2023-04-20T10:11:24;101633.81;;;23.51;29.81
69239;BME280;56349;51.816;-0.026;2023-04-20T10:13:45;101626.48;;;23.72;30.07
69239;BME280;56349;51.816;-0.026;2023-04-20T10:16:16;101625.32;;;23.23;30.32
69239;BME280;56349;51.816;-0.026;2023-04-20T10:18:37;101619.39;;;23.20;30.57
69239;BME280;56349;51.816;-0.026;2023-04-20T10:21:06;101618.81;;;22.78;30.83
69239;BME280;56349;51.816;-0.026;2023-04-20T10:23:28;101608.66;;;22.84;31.24
69239;BME280;56349;51.816;-0.026;2023-04-20T10:25:55;101610.78;;;22.67;31.58
69239;BME280;56349;51.816;-0.026;2023-04-20T10:28:20;101608.72;;;22.52;31.92
69239;BME280;56349;51.816;-0.026;2023-04-20T10:30:50;101604.98;;;22.39;32.36
69239;BME280;56349;51.816;-0.026;2023-04-20T10:33:12;101601.28;;;22.54;32.64
69239;BME280;56349;51.816;-0.026;2023-04-20T10:35:43;101597.32;;;22.18;32.93
69239;BME280;56349;51.816;-0.026;2023-04-20T10:38:02;101596.31;;;22.08;33.17
69239;BME280;56349;51.816;-0.026;2023-04-20T10:40:28;101589.53;;;22.29;33.39
69239;BME280;56349;51.816;-0.026;2023-04-20T10:42:54;101591.27;;;22.23;33.56
69239;BME280;56349;51.816;-0.026;2023-04-20T10:45:20;101589.78;;;22.36;33.76
69239;BME280;56349;51.816;-0.026;2023-04-20T10:47:46;101579.69;;;22.28;33.94
69239;BME280;56349;51.816;-0.026;2023-04-20T10:50:13;101578.64;;;22.18;34.10
69239;BME280;56349;51.816;-0.026;2023-04-20T10:52:39;101575.11;;;22.14;34.23
69239;BME280;56349;51.816;-0.026;2023-04-20T10:55:03;101566.15;;;22.09;34.36
69239;BME280;56349;51.816;-0.026;2023-04-20T10:57:28;101574.79;;;22.01;34.40
69239;BME280;56349;51.816;-0.026;2023-04-20T10:59:54;101567.17;;;21.92;34.51
69239;BME280;56349;51.816;-0.026;2023-04-20T11:02:20;101559.86;;;22.05;34.69
69239;BME280;56349;51.816;-0.026;2023-04-20T11:04:46;101557.69;;;21.96;34.78
69239;BME280;56349;51.816;-0.026;2023-04-20T11:07:12;101552.49;;;21.90;34.90
69239;BME280;56349;51.816;-0.026;2023-04-20T11:09:39;101562.19;;;21.61;35.01
69239;BME280;56349;51.816;-0.026;2023-04-20T11:12:05;101561.23;;;21.55;35.07
69239;BME280;56349;51.816;-0.026;2023-04-20T11:14:29;101551.05;;;21.71;35.16
69239;BME280;56349;51.816;-0.026;2023-04-20T11:16:54;101544.09;;;21.66;35.26
69239;BME280;56349;51.816;-0.026;2023-04-20T11:19:23;101540.35;;;21.60;35.33
69239;BME280;56349;51.816;-0.026;2023-04-20T11:21:47;101536.98;;;21.53;35.43
69239;BME280;56349;51.816;-0.026;2023-04-20T11:24:17;101539.45;;;21.49;35.48
69239;BME280;56349;51.816;-0.026;2023-04-20T11:26:38;101534.16;;;21.44;35.56
69239;BME280;56349;51.816;-0.026;2023-04-20T11:29:04;101535.34;;;21.67;35.66
69239;BME280;56349;51.816;-0.026;2023-04-20T11:31:30;101523.48;;;21.63;35.71
69239;BME280;56349;51.816;-0.026;2023-04-20T11:33:56;101522.40;;;21.58;35.79
69239;BME280;56349;51.816;-0.026;2023-04-20T11:36:23;101511.89;;;21.28;35.85
69239;BME280;56349;51.816;-0.026;2023-04-20T11:38:47;101513.82;;;21.26;35.67
69239;BME280;56349;51.816;-0.026;2023-04-20T11:41:12;101501.61;;;21.22;34.85
69239;BME280;56349;51.816;-0.026;2023-04-20T11:43:38;101505.12;;;21.42;34.41
69239;BME280;56349;51.816;-0.026;2023-04-20T11:46:12;101501.68;;;21.39;34.66
69239;BME280;56349;51.816;-0.026;2023-04-20T11:48:30;101495.23;;;21.35;34.83
69239;BME280;56349;51.816;-0.026;2023-04-20T11:50:56;101499.17;;;21.32;34.84
69239;BME280;56349;51.816;-0.026;2023-04-20T11:53:22;101480.74;;;21.00;34.92
69239;BME280;56349;51.816;-0.026;2023-04-20T11:55:47;101480.78;;;20.97;34.96
69239;BME280;56349;51.816;-0.026;2023-04-20T11:58:13;101477.02;;;21.19;34.89
69239;BME280;56349;51.816;-0.026;2023-04-20T12:00:39;101481.01;;;21.13;33.40
69239;BME280;56349;51.816;-0.026;2023-04-20T12:03:04;101473.58;;;21.07;32.16
69239;BME280;56349;51.816;-0.026;2023-04-20T12:05:30;101472.86;;;20.73;31.80
69239;BME280;56349;51.816;-0.026;2023-04-20T12:07:56;101461.40;;;20.67;31.84
69239;BME280;56349;51.816;-0.026;2023-04-20T12:10:22;101453.70;;;20.87;31.45
69239;BME280;56349;51.816;-0.026;2023-04-20T12:12:48;101454.59;;;20.80;31.18
69239;BME280;56349;51.816;-0.026;2023-04-20T12:15:14;101448.80;;;20.97;32.11
69239;BME280;56349;51.816;-0.026;2023-04-20T12:17:40;101443.52;;;20.42;30.93
69239;BME280;56349;51.816;-0.026;2023-04-20T12:20:07;101442.68;;;20.67;31.76
69239;BME280;56349;51.816;-0.026;2023-04-20T12:22:31;101440.18;;;20.85;31.15
69239;BME280;56349;51.816;-0.026;2023-04-20T12:24:57;101438.58;;;20.82;30.56
69239;BME280;56349;51.816;-0.026;2023-04-20T12:27:23;101434.60;;;20.30;30.32
69239;BME280;56349;51.816;-0.026;2023-04-20T12:29:49;101433.74;;;20.54;30.33
69239;BME280;56349;51.816;-0.026;2023-04-20T12:32:15;101426.80;;;20.54;30.36